Terminal Aerodrome Forecast
Issued by NWS Pocatello, ID

Home | Current Version | Previous Version | Text Only | Print | Product List | Glossary On
Versions: 1 2 3 4 5 6 7 8 9 10 11 12 13 14 15 16 17 18 19 20 21 22 23 24 25 26 27 28 29 30 31
000
FTUS45 KPIH 240638 AAC
TAFPIH
TAF AMD
KPIH 240638Z 2407/2506 21015KT 4SM -SN BLSN BR SCT010 OVC015
     FM240900 21014G24KT 5SM -SN BLSN BR SCT015 OVC035
     FM241900 23014G24KT 6SM -SHSN BLSN BR BKN020 OVC045
     FM250200 20010KT P6SM SCT070=

USA.gov is the U.S. government's official web portal to all federal, state and local government web resources and services.